sensor_id;sensor_type;location;lat;lon;timestamp;P1;durP1;ratioP1;P2;durP2;ratioP2
71639;SDS011;60912;48.968;10.124;2022-08-21T00:01:14;5.13;;;3.10;;
71639;SDS011;60912;48.968;10.124;2022-08-21T00:03:41;7.32;;;3.03;;
71639;SDS011;60912;48.968;10.124;2022-08-21T00:06:07;8.53;;;3.10;;
71639;SDS011;60912;48.968;10.124;2022-08-21T00:08:32;7.05;;;3.50;;
71639;SDS011;60912;48.968;10.124;2022-08-21T00:10:58;8.77;;;3.23;;
71639;SDS011;60912;48.968;10.124;2022-08-21T00:13:24;8.07;;;3.45;;
71639;SDS011;60912;48.968;10.124;2022-08-21T00:15:50;6.85;;;3.58;;
71639;SDS011;60912;48.968;10.124;2022-08-21T00:18:16;7.07;;;3.17;;
71639;SDS011;60912;48.968;10.124;2022-08-21T00:20:42;5.30;;;2.63;;
71639;SDS011;60912;48.968;10.124;2022-08-21T00:23:09;6.70;;;3.17;;
71639;SDS011;60912;48.968;10.124;2022-08-21T00:25:35;5.45;;;3.33;;
71639;SDS011;60912;48.968;10.124;2022-08-21T00:28:01;5.57;;;2.60;;
71639;SDS011;60912;48.968;10.124;2022-08-21T00:30:28;6.38;;;2.83;;
71639;SDS011;60912;48.968;10.124;2022-08-21T00:32:54;4.63;;;2.70;;
71639;SDS011;60912;48.968;10.124;2022-08-21T00:35:22;5.30;;;2.97;;
71639;SDS011;60912;48.968;10.124;2022-08-21T00:37:51;7.15;;;3.00;;
71639;SDS011;60912;48.968;10.124;2022-08-21T00:40:19;5.13;;;2.70;;
71639;SDS011;60912;48.968;10.124;2022-08-21T00:42:49;6.15;;;2.85;;
71639;SDS011;60912;48.968;10.124;2022-08-21T00:45:15;5.63;;;2.77;;
71639;SDS011;60912;48.968;10.124;2022-08-21T00:47:40;8.53;;;3.10;;
71639;SDS011;60912;48.968;10.124;2022-08-21T00:50:06;6.03;;;3.30;;
71639;SDS011;60912;48.968;10.124;2022-08-21T00:52:34;5.20;;;2.57;;
71639;SDS011;60912;48.968;10.124;2022-08-21T00:55:02;6.30;;;3.00;;
71639;SDS011;60912;48.968;10.124;2022-08-21T00:57:32;5.13;;;2.65;;
71639;SDS011;60912;48.968;10.124;2022-08-21T01:00:01;4.03;;;2.80;;
71639;SDS011;60912;48.968;10.124;2022-08-21T01:02:32;10.00;;;2.97;;
71639;SDS011;60912;48.968;10.124;2022-08-21T01:04:57;6.50;;;2.90;;
71639;SDS011;60912;48.968;10.124;2022-08-21T01:07:23;5.80;;;2.83;;
71639;SDS011;60912;48.968;10.124;2022-08-21T01:09:50;5.03;;;3.00;;
71639;SDS011;60912;48.968;10.124;2022-08-21T01:12:16;6.22;;;2.65;;
71639;SDS011;60912;48.968;10.124;2022-08-21T01:14:42;5.35;;;3.00;;
71639;SDS011;60912;48.968;10.124;2022-08-21T01:17:09;4.75;;;3.00;;
71639;SDS011;60912;48.968;10.124;2022-08-21T01:19:37;5.73;;;2.60;;
71639;SDS011;60912;48.968;10.124;2022-08-21T01:22:03;6.03;;;2.50;;
71639;SDS011;60912;48.968;10.124;2022-08-21T01:24:29;9.77;;;3.10;;
71639;SDS011;60912;48.968;10.124;2022-08-21T01:26:56;6.17;;;2.90;;
71639;SDS011;60912;48.968;10.124;2022-08-21T01:29:26;8.35;;;3.20;;
71639;SDS011;60912;48.968;10.124;2022-08-21T01:31:56;5.68;;;2.75;;
71639;SDS011;60912;48.968;10.124;2022-08-21T01:34:23;5.80;;;2.85;;
71639;SDS011;60912;48.968;10.124;2022-08-21T01:36:48;3.40;;;2.30;;
71639;SDS011;60912;48.968;10.124;2022-08-21T01:39:14;4.87;;;2.80;;
71639;SDS011;60912;48.968;10.124;2022-08-21T01:41:40;7.07;;;2.80;;
71639;SDS011;60912;48.968;10.124;2022-08-21T01:44:06;5.85;;;3.10;;
71639;SDS011;60912;48.968;10.124;2022-08-21T01:46:32;5.03;;;2.37;;
71639;SDS011;60912;48.968;10.124;2022-08-21T01:48:57;3.92;;;2.58;;
71639;SDS011;60912;48.968;10.124;2022-08-21T01:51:23;7.50;;;2.60;;
71639;SDS011;60912;48.968;10.124;2022-08-21T01:53:48;4.47;;;2.67;;
71639;SDS011;60912;48.968;10.124;2022-08-21T01:56:14;9.30;;;2.77;;
71639;SDS011;60912;48.968;10.124;2022-08-21T01:58:41;7.13;;;3.17;;
71639;SDS011;60912;48.968;10.124;2022-08-21T02:01:08;6.17;;;3.03;;
71639;SDS011;60912;48.968;10.124;2022-08-21T02:03:35;6.90;;;2.70;;
71639;SDS011;60912;48.968;10.124;2022-08-21T02:06:00;5.32;;;2.60;;
71639;SDS011;60912;48.968;10.124;2022-08-21T02:08:27;4.93;;;2.60;;
71639;SDS011;60912;48.968;10.124;2022-08-21T02:10:52;5.70;;;2.38;;
71639;SDS011;60912;48.968;10.124;2022-08-21T02:13:18;5.60;;;2.60;;
71639;SDS011;60912;48.968;10.124;2022-08-21T02:15:43;3.93;;;2.50;;
71639;SDS011;60912;48.968;10.124;2022-08-21T02:18:09;5.10;;;3.00;;
71639;SDS011;60912;48.968;10.124;2022-08-21T02:20:37;4.33;;;3.13;;
71639;SDS011;60912;48.968;10.124;2022-08-21T02:23:08;8.82;;;3.50;;
71639;SDS011;60912;48.968;10.124;2022-08-21T02:25:35;6.28;;;3.05;;
71639;SDS011;60912;48.968;10.124;2022-08-21T02:28:06;5.95;;;2.90;;
71639;SDS011;60912;48.968;10.124;2022-08-21T02:30:35;6.20;;;2.70;;
71639;SDS011;60912;48.968;10.124;2022-08-21T02:33:03;8.52;;;2.80;;
71639;SDS011;60912;48.968;10.124;2022-08-21T02:35:29;4.50;;;2.50;;
71639;SDS011;60912;48.968;10.124;2022-08-21T02:40:32;6.47;;;2.57;;
71639;SDS011;60912;48.968;10.124;2022-08-21T02:43:00;4.90;;;2.70;;
71639;SDS011;60912;48.968;10.124;2022-08-21T02:45:26;6.80;;;2.95;;
71639;SDS011;60912;48.968;10.124;2022-08-21T02:47:54;4.30;;;2.20;;
71639;SDS011;60912;48.968;10.124;2022-08-21T02:50:23;4.75;;;2.97;;
71639;SDS011;60912;48.968;10.124;2022-08-21T02:52:50;3.90;;;2.30;;
71639;SDS011;60912;48.968;10.124;2022-08-21T02:55:17;5.05;;;2.33;;
71639;SDS011;60912;48.968;10.124;2022-08-21T02:57:43;4.57;;;2.28;;
71639;SDS011;60912;48.968;10.124;2022-08-21T03:00:09;4.43;;;2.60;;
71639;SDS011;60912;48.968;10.124;2022-08-21T03:02:37;4.50;;;2.35;;
71639;SDS011;60912;48.968;10.124;2022-08-21T03:05:03;4.80;;;2.27;;
71639;SDS011;60912;48.968;10.124;2022-08-21T03:07:29;5.50;;;2.40;;
71639;SDS011;60912;48.968;10.124;2022-08-21T03:09:55;4.47;;;2.40;;
71639;SDS011;60912;48.968;10.124;2022-08-21T03:12:20;4.07;;;2.30;;
71639;SDS011;60912;48.968;10.124;2022-08-21T03:14:45;4.93;;;2.43;;
71639;SDS011;60912;48.968;10.124;2022-08-21T03:17:11;6.40;;;2.57;;
71639;SDS011;60912;48.968;10.124;2022-08-21T03:19:36;5.38;;;2.50;;
71639;SDS011;60912;48.968;10.124;2022-08-21T03:22:01;4.37;;;2.20;;
71639;SDS011;60912;48.968;10.124;2022-08-21T03:24:27;6.60;;;2.00;;
71639;SDS011;60912;48.968;10.124;2022-08-21T03:26:52;5.23;;;2.40;;
71639;SDS011;60912;48.968;10.124;2022-08-21T03:29:18;4.07;;;2.30;;
71639;SDS011;60912;48.968;10.124;2022-08-21T03:31:43;4.73;;;2.30;;
71639;SDS011;60912;48.968;10.124;2022-08-21T03:34:09;6.33;;;1.97;;
71639;SDS011;60912;48.968;10.124;2022-08-21T03:36:35;4.57;;;2.05;;
71639;SDS011;60912;48.968;10.124;2022-08-21T03:39:00;2.90;;;1.73;;
71639;SDS011;60912;48.968;10.124;2022-08-21T03:41:25;4.00;;;1.97;;
71639;SDS011;60912;48.968;10.124;2022-08-21T03:43:51;3.87;;;2.27;;
71639;SDS011;60912;48.968;10.124;2022-08-21T03:46:16;3.97;;;2.30;;
71639;SDS011;60912;48.968;10.124;2022-08-21T03:48:41;4.57;;;2.37;;
71639;SDS011;60912;48.968;10.124;2022-08-21T03:51:07;4.95;;;2.20;;
71639;SDS011;60912;48.968;10.124;2022-08-21T03:53:32;5.33;;;2.63;;
71639;SDS011;60912;48.968;10.124;2022-08-21T03:55:58;4.45;;;2.20;;
71639;SDS011;60912;48.968;10.124;2022-08-21T03:58:25;4.33;;;2.10;;
71639;SDS011;60912;48.968;10.124;2022-08-21T04:00:52;3.45;;;2.20;;
71639;SDS011;60912;48.968;10.124;2022-08-21T04:03:19;4.68;;;2.60;;
71639;SDS011;60912;48.968;10.124;2022-08-21T04:05:45;3.20;;;2.07;;
71639;SDS011;60912;48.968;10.124;2022-08-21T04:08:11;3.58;;;2.08;;
71639;SDS011;60912;48.968;10.124;2022-08-21T04:10:38;5.40;;;2.30;;
71639;SDS011;60912;48.968;10.124;2022-08-21T04:13:04;4.97;;;2.03;;
71639;SDS011;60912;48.968;10.124;2022-08-21T04:15:30;8.43;;;2.20;;
71639;SDS011;60912;48.968;10.124;2022-08-21T04:17:56;4.97;;;2.35;;
71639;SDS011;60912;48.968;10.124;2022-08-21T04:20:21;4.20;;;2.10;;
71639;SDS011;60912;48.968;10.124;2022-08-21T04:22:48;4.88;;;2.33;;
71639;SDS011;60912;48.968;10.124;2022-08-21T04:25:15;6.65;;;2.13;;
71639;SDS011;60912;48.968;10.124;2022-08-21T04:27:43;3.43;;;2.10;;
71639;SDS011;60912;48.968;10.124;2022-08-21T04:30:09;5.60;;;1.98;;
71639;SDS011;60912;48.968;10.124;2022-08-21T04:32:36;4.60;;;2.10;;
71639;SDS011;60912;48.968;10.124;2022-08-21T04:35:07;4.68;;;2.45;;
71639;SDS011;60912;48.968;10.124;2022-08-21T04:37:34;7.03;;;2.15;;
71639;SDS011;60912;48.968;10.124;2022-08-21T04:40:00;4.10;;;1.77;;
71639;SDS011;60912;48.968;10.124;2022-08-21T04:42:26;3.40;;;2.10;;
71639;SDS011;60912;48.968;10.124;2022-08-21T04:44:53;4.20;;;1.98;;
71639;SDS011;60912;48.968;10.124;2022-08-21T04:47:19;4.75;;;2.17;;
71639;SDS011;60912;48.968;10.124;2022-08-21T04:49:45;4.35;;;1.80;;
71639;SDS011;60912;48.968;10.124;2022-08-21T04:52:12;5.20;;;2.10;;
71639;SDS011;60912;48.968;10.124;2022-08-21T04:54:40;3.05;;;1.55;;
71639;SDS011;60912;48.968;10.124;2022-08-21T04:57:08;2.92;;;1.60;;
71639;SDS011;60912;48.968;10.124;2022-08-21T04:59:36;2.72;;;1.70;;
71639;SDS011;60912;48.968;10.124;2022-08-21T05:02:05;3.30;;;1.40;;
71639;SDS011;60912;48.968;10.124;2022-08-21T05:04:33;3.67;;;1.40;;
71639;SDS011;60912;48.968;10.124;2022-08-21T05:07:02;7.05;;;1.27;;
71639;SDS011;60912;48.968;10.124;2022-08-21T05:09:31;2.53;;;1.15;;
71639;SDS011;60912;48.968;10.124;2022-08-21T05:11:57;4.25;;;1.40;;
71639;SDS011;60912;48.968;10.124;2022-08-21T05:14:23;2.42;;;1.15;;
71639;SDS011;60912;48.968;10.124;2022-08-21T05:16:48;3.37;;;1.27;;
71639;SDS011;60912;48.968;10.124;2022-08-21T05:19:14;3.57;;;1.40;;
71639;SDS011;60912;48.968;10.124;2022-08-21T05:21:41;2.50;;;1.10;;
71639;SDS011;60912;48.968;10.124;2022-08-21T05:24:09;3.17;;;1.10;;
71639;SDS011;60912;48.968;10.124;2022-08-21T05:26:36;3.05;;;1.17;;
71639;SDS011;60912;48.968;10.124;2022-08-21T05:29:02;2.03;;;1.17;;
71639;SDS011;60912;48.968;10.124;2022-08-21T05:31:28;2.03;;;1.10;;
71639;SDS011;60912;48.968;10.124;2022-08-21T05:33:53;2.50;;;1.30;;
71639;SDS011;60912;48.968;10.124;2022-08-21T05:36:19;2.67;;;1.10;;
71639;SDS011;60912;48.968;10.124;2022-08-21T05:38:44;5.97;;;1.30;;
71639;SDS011;60912;48.968;10.124;2022-08-21T05:41:10;2.87;;;1.27;;
71639;SDS011;60912;48.968;10.124;2022-08-21T05:43:36;3.75;;;1.17;;
71639;SDS011;60912;48.968;10.124;2022-08-21T05:46:02;2.23;;;1.03;;
71639;SDS011;60912;48.968;10.124;2022-08-21T05:48:29;4.90;;;1.20;;
71639;SDS011;60912;48.968;10.124;2022-08-21T05:50:55;5.33;;;1.30;;
71639;SDS011;60912;48.968;10.124;2022-08-21T05:53:22;4.50;;;1.42;;
71639;SDS011;60912;48.968;10.124;2022-08-21T05:55:48;3.25;;;1.10;;
71639;SDS011;60912;48.968;10.124;2022-08-21T05:58:14;3.80;;;1.40;;
71639;SDS011;60912;48.968;10.124;2022-08-21T06:00:42;4.53;;;1.25;;
71639;SDS011;60912;48.968;10.124;2022-08-21T06:03:12;4.25;;;1.35;;
71639;SDS011;60912;48.968;10.124;2022-08-21T06:05:41;3.65;;;1.30;;
71639;SDS011;60912;48.968;10.124;2022-08-21T06:08:07;6.10;;;1.73;;
71639;SDS011;60912;48.968;10.124;2022-08-21T06:10:32;5.07;;;1.50;;
71639;SDS011;60912;48.968;10.124;2022-08-21T06:12:58;3.45;;;1.40;;
71639;SDS011;60912;48.968;10.124;2022-08-21T06:15:23;3.50;;;1.70;;
71639;SDS011;60912;48.968;10.124;2022-08-21T06:17:49;4.30;;;1.80;;
71639;SDS011;60912;48.968;10.124;2022-08-21T06:20:14;5.33;;;1.73;;
71639;SDS011;60912;48.968;10.124;2022-08-21T06:22:40;3.67;;;1.67;;
71639;SDS011;60912;48.968;10.124;2022-08-21T06:25:05;4.10;;;1.80;;
71639;SDS011;60912;48.968;10.124;2022-08-21T06:27:31;4.85;;;1.70;;
71639;SDS011;60912;48.968;10.124;2022-08-21T06:29:56;6.90;;;2.00;;
71639;SDS011;60912;48.968;10.124;2022-08-21T06:32:22;5.22;;;1.80;;
71639;SDS011;60912;48.968;10.124;2022-08-21T06:34:48;5.93;;;2.10;;
71639;SDS011;60912;48.968;10.124;2022-08-21T06:37:13;4.80;;;2.10;;
71639;SDS011;60912;48.968;10.124;2022-08-21T06:39:39;6.60;;;2.20;;
71639;SDS011;60912;48.968;10.124;2022-08-21T06:42:04;5.93;;;2.40;;
71639;SDS011;60912;48.968;10.124;2022-08-21T06:44:30;4.93;;;2.20;;
71639;SDS011;60912;48.968;10.124;2022-08-21T06:46:55;5.40;;;2.50;;
71639;SDS011;60912;48.968;10.124;2022-08-21T06:49:21;4.83;;;2.30;;
71639;SDS011;60912;48.968;10.124;2022-08-21T06:51:47;5.45;;;2.40;;
71639;SDS011;60912;48.968;10.124;2022-08-21T06:54:12;5.37;;;2.40;;
71639;SDS011;60912;48.968;10.124;2022-08-21T06:56:38;5.43;;;2.50;;
71639;SDS011;60912;48.968;10.124;2022-08-21T06:59:04;4.80;;;2.33;;
71639;SDS011;60912;48.968;10.124;2022-08-21T07:01:30;4.27;;;2.50;;
71639;SDS011;60912;48.968;10.124;2022-08-21T07:03:55;6.28;;;2.50;;
71639;SDS011;60912;48.968;10.124;2022-08-21T07:06:21;6.07;;;2.63;;
71639;SDS011;60912;48.968;10.124;2022-08-21T07:08:46;6.97;;;2.50;;
71639;SDS011;60912;48.968;10.124;2022-08-21T07:11:21;5.73;;;2.43;;
71639;SDS011;60912;48.968;10.124;2022-08-21T07:13:50;5.50;;;2.88;;
71639;SDS011;60912;48.968;10.124;2022-08-21T07:16:17;6.65;;;2.80;;
71639;SDS011;60912;48.968;10.124;2022-08-21T07:18:43;7.60;;;2.72;;
71639;SDS011;60912;48.968;10.124;2022-08-21T07:21:09;6.23;;;2.80;;
71639;SDS011;60912;48.968;10.124;2022-08-21T07:23:36;5.83;;;2.97;;
71639;SDS011;60912;48.968;10.124;2022-08-21T07:26:07;5.38;;;2.95;;
71639;SDS011;60912;48.968;10.124;2022-08-21T07:28:33;6.32;;;2.90;;
71639;SDS011;60912;48.968;10.124;2022-08-21T07:30:59;6.87;;;3.33;;
71639;SDS011;60912;48.968;10.124;2022-08-21T07:33:26;7.18;;;2.80;;
71639;SDS011;60912;48.968;10.124;2022-08-21T07:35:53;4.85;;;2.83;;
71639;SDS011;60912;48.968;10.124;2022-08-21T07:38:19;5.03;;;2.70;;
71639;SDS011;60912;48.968;10.124;2022-08-21T07:40:46;7.03;;;2.83;;
71639;SDS011;60912;48.968;10.124;2022-08-21T07:43:14;6.45;;;3.38;;
71639;SDS011;60912;48.968;10.124;2022-08-21T07:45:41;6.95;;;4.00;;
71639;SDS011;60912;48.968;10.124;2022-08-21T07:48:07;10.87;;;4.07;;
71639;SDS011;60912;48.968;10.124;2022-08-21T07:50:32;6.40;;;3.63;;
71639;SDS011;60912;48.968;10.124;2022-08-21T07:52:58;7.95;;;4.28;;
71639;SDS011;60912;48.968;10.124;2022-08-21T07:55:23;7.73;;;4.10;;
71639;SDS011;60912;48.968;10.124;2022-08-21T07:57:49;6.87;;;3.80;;
71639;SDS011;60912;48.968;10.124;2022-08-21T08:00:16;8.45;;;3.95;;
71639;SDS011;60912;48.968;10.124;2022-08-21T08:02:45;7.18;;;4.10;;
71639;SDS011;60912;48.968;10.124;2022-08-21T08:05:14;7.27;;;4.00;;
71639;SDS011;60912;48.968;10.124;2022-08-21T08:07:39;6.22;;;3.72;;
71639;SDS011;60912;48.968;10.124;2022-08-21T08:10:05;7.80;;;3.87;;
71639;SDS011;60912;48.968;10.124;2022-08-21T08:12:36;6.75;;;3.63;;
71639;SDS011;60912;48.968;10.124;2022-08-21T08:15:03;9.20;;;3.88;;
71639;SDS011;60912;48.968;10.124;2022-08-21T08:17:30;9.43;;;4.23;;
71639;SDS011;60912;48.968;10.124;2022-08-21T08:19:57;9.48;;;4.10;;
71639;SDS011;60912;48.968;10.124;2022-08-21T08:22:23;7.22;;;4.35;;
71639;SDS011;60912;48.968;10.124;2022-08-21T08:24:49;6.82;;;4.32;;
71639;SDS011;60912;48.968;10.124;2022-08-21T08:27:15;9.13;;;4.60;;
71639;SDS011;60912;48.968;10.124;2022-08-21T08:29:41;7.97;;;4.03;;
71639;SDS011;60912;48.968;10.124;2022-08-21T08:32:08;6.10;;;3.88;;
71639;SDS011;60912;48.968;10.124;2022-08-21T08:34:34;8.05;;;4.45;;
71639;SDS011;60912;48.968;10.124;2022-08-21T08:37:00;6.90;;;4.27;;
71639;SDS011;60912;48.968;10.124;2022-08-21T08:39:25;8.55;;;4.93;;
71639;SDS011;60912;48.968;10.124;2022-08-21T08:41:54;8.27;;;4.30;;
71639;SDS011;60912;48.968;10.124;2022-08-21T08:44:24;10.43;;;4.27;;
71639;SDS011;60912;48.968;10.124;2022-08-21T08:46:50;5.75;;;3.83;;
71639;SDS011;60912;48.968;10.124;2022-08-21T08:49:23;9.30;;;4.03;;
71639;SDS011;60912;48.968;10.124;2022-08-21T08:51:59;8.07;;;4.22;;
71639;SDS011;60912;48.968;10.124;2022-08-21T08:57:00;7.85;;;4.55;;
71639;SDS011;60912;48.968;10.124;2022-08-21T08:59:32;6.53;;;3.97;;
71639;SDS011;60912;48.968;10.124;2022-08-21T09:02:11;6.17;;;3.93;;
71639;SDS011;60912;48.968;10.124;2022-08-21T09:04:41;7.40;;;3.97;;
71639;SDS011;60912;48.968;10.124;2022-08-21T09:18:04;7.97;;;4.10;;
71639;SDS011;60912;48.968;10.124;2022-08-21T09:27:13;6.85;;;3.40;;
71639;SDS011;60912;48.968;10.124;2022-08-21T09:29:40;6.90;;;4.20;;
71639;SDS011;60912;48.968;10.124;2022-08-21T09:32:18;7.15;;;3.78;;
71639;SDS011;60912;48.968;10.124;2022-08-21T09:37:23;7.75;;;3.53;;
71639;SDS011;60912;48.968;10.124;2022-08-21T09:39:49;7.72;;;3.75;;
71639;SDS011;60912;48.968;10.124;2022-08-21T09:42:22;6.80;;;3.47;;
71639;SDS011;60912;48.968;10.124;2022-08-21T09:45:00;7.35;;;3.60;;
71639;SDS011;60912;48.968;10.124;2022-08-21T09:47:36;7.63;;;3.50;;
71639;SDS011;60912;48.968;10.124;2022-08-21T09:50:10;9.87;;;4.07;;
71639;SDS011;60912;48.968;10.124;2022-08-21T09:52:48;6.13;;;3.40;;
71639;SDS011;60912;48.968;10.124;2022-08-21T09:55:39;5.63;;;2.92;;
71639;SDS011;60912;48.968;10.124;2022-08-21T09:58:33;6.75;;;3.40;;
71639;SDS011;60912;48.968;10.124;2022-08-21T10:01:02;7.15;;;3.50;;
71639;SDS011;60912;48.968;10.124;2022-08-21T10:03:29;6.13;;;3.40;;
71639;SDS011;60912;48.968;10.124;2022-08-21T10:05:57;7.30;;;3.08;;
71639;SDS011;60912;48.968;10.124;2022-08-21T10:08:26;9.02;;;3.78;;
71639;SDS011;60912;48.968;10.124;2022-08-21T10:10:57;5.57;;;3.28;;
71639;SDS011;60912;48.968;10.124;2022-08-21T10:19:12;7.03;;;3.03;;
71639;SDS011;60912;48.968;10.124;2022-08-21T10:27:27;7.85;;;3.10;;
71639;SDS011;60912;48.968;10.124;2022-08-21T10:30:01;8.83;;;3.33;;
71639;SDS011;60912;48.968;10.124;2022-08-21T10:46:07;7.25;;;2.58;;
71639;SDS011;60912;48.968;10.124;2022-08-21T10:48:59;7.60;;;2.42;;
71639;SDS011;60912;48.968;10.124;2022-08-21T10:52:27;7.15;;;2.50;;
71639;SDS011;60912;48.968;10.124;2022-08-21T10:57:46;6.87;;;2.90;;
71639;SDS011;60912;48.968;10.124;2022-08-21T11:00:23;5.75;;;2.58;;
71639;SDS011;60912;48.968;10.124;2022-08-21T11:06:04;7.28;;;3.10;;
71639;SDS011;60912;48.968;10.124;2022-08-21T11:09:13;4.90;;;2.65;;
71639;SDS011;60912;48.968;10.124;2022-08-21T11:11:30;8.07;;;2.70;;
71639;SDS011;60912;48.968;10.124;2022-08-21T11:17:00;7.25;;;2.47;;
71639;SDS011;60912;48.968;10.124;2022-08-21T11:19:52;6.95;;;2.53;;
71639;SDS011;60912;48.968;10.124;2022-08-21T11:22:28;7.57;;;2.45;;
71639;SDS011;60912;48.968;10.124;2022-08-21T11:27:52;7.28;;;2.85;;
71639;SDS011;60912;48.968;10.124;2022-08-21T11:30:24;7.22;;;2.80;;
71639;SDS011;60912;48.968;10.124;2022-08-21T11:35:57;5.70;;;2.30;;
71639;SDS011;60912;48.968;10.124;2022-08-21T11:38:51;7.63;;;2.40;;
71639;SDS011;60912;48.968;10.124;2022-08-21T11:41:36;5.13;;;2.22;;
71639;SDS011;60912;48.968;10.124;2022-08-21T11:52:18;5.07;;;2.30;;
71639;SDS011;60912;48.968;10.124;2022-08-21T11:54:58;6.60;;;2.40;;
71639;SDS011;60912;48.968;10.124;2022-08-21T12:02:40;5.07;;;2.30;;
71639;SDS011;60912;48.968;10.124;2022-08-21T12:05:11;7.65;;;2.30;;
71639;SDS011;60912;48.968;10.124;2022-08-21T12:07:47;5.00;;;2.30;;
71639;SDS011;60912;48.968;10.124;2022-08-21T12:10:18;6.50;;;2.40;;
71639;SDS011;60912;48.968;10.124;2022-08-21T12:12:47;5.65;;;2.40;;
71639;SDS011;60912;48.968;10.124;2022-08-21T12:15:23;6.53;;;2.30;;
71639;SDS011;60912;48.968;10.124;2022-08-21T12:18:04;6.00;;;2.07;;
71639;SDS011;60912;48.968;10.124;2022-08-21T12:23:05;5.37;;;2.07;;
71639;SDS011;60912;48.968;10.124;2022-08-21T12:25:42;7.32;;;2.38;;
71639;SDS011;60912;48.968;10.124;2022-08-21T12:28:12;5.63;;;2.30;;
71639;SDS011;60912;48.968;10.124;2022-08-21T12:30:41;5.05;;;2.08;;
71639;SDS011;60912;48.968;10.124;2022-08-21T12:33:20;5.87;;;2.40;;
71639;SDS011;60912;48.968;10.124;2022-08-21T12:35:47;5.55;;;2.28;;
71639;SDS011;60912;48.968;10.124;2022-08-21T12:40:43;6.28;;;2.03;;
71639;SDS011;60912;48.968;10.124;2022-08-21T12:43:22;6.07;;;2.20;;
71639;SDS011;60912;48.968;10.124;2022-08-21T12:45:53;5.70;;;2.10;;
71639;SDS011;60912;48.968;10.124;2022-08-21T12:51:17;5.90;;;2.13;;
71639;SDS011;60912;48.968;10.124;2022-08-21T12:53:48;10.17;;;2.33;;
71639;SDS011;60912;48.968;10.124;2022-08-21T12:56:16;5.22;;;2.25;;
71639;SDS011;60912;48.968;10.124;2022-08-21T12:58:45;4.95;;;1.80;;
71639;SDS011;60912;48.968;10.124;2022-08-21T13:01:19;5.50;;;1.80;;
71639;SDS011;60912;48.968;10.124;2022-08-21T13:03:59;6.45;;;2.10;;
71639;SDS011;60912;48.968;10.124;2022-08-21T13:06:29;5.83;;;2.00;;
71639;SDS011;60912;48.968;10.124;2022-08-21T13:09:04;3.72;;;1.88;;
71639;SDS011;60912;48.968;10.124;2022-08-21T13:11:32;4.47;;;1.85;;
71639;SDS011;60912;48.968;10.124;2022-08-21T13:13:58;3.95;;;1.90;;
71639;SDS011;60912;48.968;10.124;2022-08-21T13:16:27;5.68;;;2.22;;
71639;SDS011;60912;48.968;10.124;2022-08-21T13:19:02;5.73;;;2.20;;
71639;SDS011;60912;48.968;10.124;2022-08-21T13:21:41;5.60;;;1.90;;
71639;SDS011;60912;48.968;10.124;2022-08-21T13:24:24;7.95;;;2.22;;
71639;SDS011;60912;48.968;10.124;2022-08-21T13:26:52;4.07;;;2.10;;
71639;SDS011;60912;48.968;10.124;2022-08-21T13:29:19;5.70;;;1.88;;
71639;SDS011;60912;48.968;10.124;2022-08-21T13:31:49;4.43;;;1.80;;
71639;SDS011;60912;48.968;10.124;2022-08-21T13:34:17;5.47;;;2.00;;
71639;SDS011;60912;48.968;10.124;2022-08-21T13:36:45;4.25;;;1.88;;
71639;SDS011;60912;48.968;10.124;2022-08-21T13:39:17;4.65;;;2.00;;
71639;SDS011;60912;48.968;10.124;2022-08-21T13:41:48;5.25;;;2.20;;
71639;SDS011;60912;48.968;10.124;2022-08-21T13:46:46;5.78;;;2.00;;
71639;SDS011;60912;48.968;10.124;2022-08-21T13:49:15;6.03;;;2.20;;
71639;SDS011;60912;48.968;10.124;2022-08-21T13:51:42;5.00;;;2.00;;
71639;SDS011;60912;48.968;10.124;2022-08-21T13:57:02;4.37;;;1.83;;
71639;SDS011;60912;48.968;10.124;2022-08-21T13:59:29;4.78;;;1.73;;
71639;SDS011;60912;48.968;10.124;2022-08-21T14:01:58;3.85;;;1.80;;
71639;SDS011;60912;48.968;10.124;2022-08-21T14:04:58;4.40;;;1.90;;
71639;SDS011;60912;48.968;10.124;2022-08-21T14:07:38;3.83;;;2.00;;
71639;SDS011;60912;48.968;10.124;2022-08-21T14:10:06;5.20;;;2.17;;
71639;SDS011;60912;48.968;10.124;2022-08-21T14:12:51;4.75;;;1.90;;
71639;SDS011;60912;48.968;10.124;2022-08-21T14:15:23;4.22;;;2.00;;
71639;SDS011;60912;48.968;10.124;2022-08-21T14:17:50;5.07;;;1.80;;
71639;SDS011;60912;48.968;10.124;2022-08-21T14:20:30;5.07;;;1.90;;
71639;SDS011;60912;48.968;10.124;2022-08-21T14:22:58;5.72;;;1.90;;
71639;SDS011;60912;48.968;10.124;2022-08-21T14:27:50;4.23;;;1.90;;
71639;SDS011;60912;48.968;10.124;2022-08-21T14:32:46;3.85;;;1.90;;
71639;SDS011;60912;48.968;10.124;2022-08-21T14:35:12;4.10;;;1.70;;
71639;SDS011;60912;48.968;10.124;2022-08-21T14:37:42;4.25;;;2.00;;
71639;SDS011;60912;48.968;10.124;2022-08-21T14:40:08;5.97;;;2.08;;
71639;SDS011;60912;48.968;10.124;2022-08-21T14:42:35;3.63;;;1.80;;
71639;SDS011;60912;48.968;10.124;2022-08-21T14:45:02;4.10;;;2.00;;
71639;SDS011;60912;48.968;10.124;2022-08-21T14:47:38;3.88;;;1.83;;
71639;SDS011;60912;48.968;10.124;2022-08-21T14:50:03;4.77;;;1.90;;
71639;SDS011;60912;48.968;10.124;2022-08-21T14:52:29;6.25;;;2.00;;
71639;SDS011;60912;48.968;10.124;2022-08-21T14:54:55;3.87;;;1.87;;
71639;SDS011;60912;48.968;10.124;2022-08-21T14:57:23;4.93;;;1.93;;
71639;SDS011;60912;48.968;10.124;2022-08-21T14:59:51;4.00;;;2.00;;
71639;SDS011;60912;48.968;10.124;2022-08-21T15:02:19;3.67;;;1.80;;
71639;SDS011;60912;48.968;10.124;2022-08-21T15:04:44;4.67;;;2.00;;
71639;SDS011;60912;48.968;10.124;2022-08-21T15:07:09;4.60;;;1.80;;
71639;SDS011;60912;48.968;10.124;2022-08-21T15:09:35;5.22;;;1.90;;
71639;SDS011;60912;48.968;10.124;2022-08-21T15:12:01;5.53;;;2.10;;
71639;SDS011;60912;48.968;10.124;2022-08-21T15:14:28;5.82;;;1.73;;
71639;SDS011;60912;48.968;10.124;2022-08-21T15:16:55;4.88;;;2.10;;
71639;SDS011;60912;48.968;10.124;2022-08-21T15:19:22;4.30;;;1.80;;
71639;SDS011;60912;48.968;10.124;2022-08-21T15:21:48;3.35;;;1.70;;
71639;SDS011;60912;48.968;10.124;2022-08-21T15:24:14;5.27;;;1.70;;
71639;SDS011;60912;48.968;10.124;2022-08-21T15:26:39;4.10;;;1.70;;
71639;SDS011;60912;48.968;10.124;2022-08-21T15:29:05;4.23;;;1.73;;
71639;SDS011;60912;48.968;10.124;2022-08-21T15:31:32;3.70;;;1.70;;
71639;SDS011;60912;48.968;10.124;2022-08-21T15:33:58;3.72;;;1.80;;
71639;SDS011;60912;48.968;10.124;2022-08-21T15:36:23;3.37;;;1.70;;
71639;SDS011;60912;48.968;10.124;2022-08-21T15:38:49;5.57;;;1.85;;
71639;SDS011;60912;48.968;10.124;2022-08-21T15:41:14;4.30;;;2.07;;
71639;SDS011;60912;48.968;10.124;2022-08-21T15:43:42;3.33;;;1.58;;
71639;SDS011;60912;48.968;10.124;2022-08-21T15:46:12;5.22;;;1.98;;
71639;SDS011;60912;48.968;10.124;2022-08-21T15:48:39;3.53;;;1.80;;
71639;SDS011;60912;48.968;10.124;2022-08-21T15:51:05;4.40;;;1.73;;
71639;SDS011;60912;48.968;10.124;2022-08-21T15:53:30;5.57;;;2.30;;
71639;SDS011;60912;48.968;10.124;2022-08-21T15:56:03;5.63;;;2.10;;
71639;SDS011;60912;48.968;10.124;2022-08-21T15:58:29;5.70;;;2.25;;
71639;SDS011;60912;48.968;10.124;2022-08-21T16:00:55;4.63;;;1.90;;
71639;SDS011;60912;48.968;10.124;2022-08-21T16:03:26;5.97;;;2.00;;
71639;SDS011;60912;48.968;10.124;2022-08-21T16:05:52;4.22;;;2.20;;
71639;SDS011;60912;48.968;10.124;2022-08-21T16:08:21;4.90;;;1.90;;
71639;SDS011;60912;48.968;10.124;2022-08-21T16:10:47;4.82;;;2.00;;
71639;SDS011;60912;48.968;10.124;2022-08-21T16:13:27;5.57;;;2.00;;
71639;SDS011;60912;48.968;10.124;2022-08-21T16:15:58;4.68;;;1.75;;
71639;SDS011;60912;48.968;10.124;2022-08-21T16:18:24;5.77;;;1.93;;